sensor_id;sensor_type;location;lat;lon;timestamp;temperature;humidity
38464;DHT22;24243;51.956;5.902;2022-10-16T00:00:16;19.80;60.70
38464;DHT22;24243;51.956;5.902;2022-10-16T00:02:42;19.80;60.70
38464;DHT22;24243;51.956;5.902;2022-10-16T00:05:08;19.70;60.60
38464;DHT22;24243;51.956;5.902;2022-10-16T00:07:33;19.70;60.60
38464;DHT22;24243;51.956;5.902;2022-10-16T00:09:59;19.70;60.60
38464;DHT22;24243;51.956;5.902;2022-10-16T00:12:24;19.70;60.50
38464;DHT22;24243;51.956;5.902;2022-10-16T00:14:50;19.70;60.50
38464;DHT22;24243;51.956;5.902;2022-10-16T00:17:15;19.70;60.60
38464;DHT22;24243;51.956;5.902;2022-10-16T00:19:41;19.70;60.50
38464;DHT22;24243;51.956;5.902;2022-10-16T00:22:06;19.70;60.50
38464;DHT22;24243;51.956;5.902;2022-10-16T00:24:32;19.70;60.50
38464;DHT22;24243;51.956;5.902;2022-10-16T00:26:58;19.70;60.50
38464;DHT22;24243;51.956;5.902;2022-10-16T00:29:23;19.70;60.50
38464;DHT22;24243;51.956;5.902;2022-10-16T00:31:49;19.70;60.50
38464;DHT22;24243;51.956;5.902;2022-10-16T00:34:14;19.70;60.50
38464;DHT22;24243;51.956;5.902;2022-10-16T00:36:40;19.70;60.50
38464;DHT22;24243;51.956;5.902;2022-10-16T00:39:05;19.70;60.50
38464;DHT22;24243;51.956;5.902;2022-10-16T00:41:31;19.70;60.40
38464;DHT22;24243;51.956;5.902;2022-10-16T00:43:58;19.70;60.50
38464;DHT22;24243;51.956;5.902;2022-10-16T00:46:28;19.70;60.40
38464;DHT22;24243;51.956;5.902;2022-10-16T00:49:03;19.70;60.40
38464;DHT22;24243;51.956;5.902;2022-10-16T00:51:42;19.70;60.40
38464;DHT22;24243;51.956;5.902;2022-10-16T00:54:10;19.70;60.40
38464;DHT22;24243;51.956;5.902;2022-10-16T00:56:37;19.70;60.40
38464;DHT22;24243;51.956;5.902;2022-10-16T00:59:07;19.70;60.40
38464;DHT22;24243;51.956;5.902;2022-10-16T01:01:33;19.70;60.40
38464;DHT22;24243;51.956;5.902;2022-10-16T01:03:58;19.70;60.40
38464;DHT22;24243;51.956;5.902;2022-10-16T01:06:26;19.70;60.40
38464;DHT22;24243;51.956;5.902;2022-10-16T01:09:01;19.70;60.40
38464;DHT22;24243;51.956;5.902;2022-10-16T01:11:36;19.70;60.30
38464;DHT22;24243;51.956;5.902;2022-10-16T01:14:06;19.70;60.20
38464;DHT22;24243;51.956;5.902;2022-10-16T01:16:35;19.70;60.20
38464;DHT22;24243;51.956;5.902;2022-10-16T01:19:18;19.70;60.20
38464;DHT22;24243;51.956;5.902;2022-10-16T01:21:46;19.70;60.20
38464;DHT22;24243;51.956;5.902;2022-10-16T01:24:17;19.70;60.20
38464;DHT22;24243;51.956;5.902;2022-10-16T01:26:59;19.70;60.10
38464;DHT22;24243;51.956;5.902;2022-10-16T01:29:26;19.70;60.10
38464;DHT22;24243;51.956;5.902;2022-10-16T01:31:54;19.70;60.00
38464;DHT22;24243;51.956;5.902;2022-10-16T01:34:22;19.70;60.00
38464;DHT22;24243;51.956;5.902;2022-10-16T01:36:51;19.80;60.10
38464;DHT22;24243;51.956;5.902;2022-10-16T01:39:18;19.70;60.00
38464;DHT22;24243;51.956;5.902;2022-10-16T01:41:51;19.70;60.00
38464;DHT22;24243;51.956;5.902;2022-10-16T01:44:21;19.70;60.00
38464;DHT22;24243;51.956;5.902;2022-10-16T01:46:48;19.70;60.00
38464;DHT22;24243;51.956;5.902;2022-10-16T01:49:15;19.70;60.00
38464;DHT22;24243;51.956;5.902;2022-10-16T01:51:41;19.70;60.10
38464;DHT22;24243;51.956;5.902;2022-10-16T01:54:09;19.70;60.10
38464;DHT22;24243;51.956;5.902;2022-10-16T01:56:35;19.70;60.10
38464;DHT22;24243;51.956;5.902;2022-10-16T01:59:02;19.70;60.10
38464;DHT22;24243;51.956;5.902;2022-10-16T02:01:30;19.70;60.10
38464;DHT22;24243;51.956;5.902;2022-10-16T02:03:57;19.70;60.00
38464;DHT22;24243;51.956;5.902;2022-10-16T02:06:24;19.70;60.00
38464;DHT22;24243;51.956;5.902;2022-10-16T02:08:51;19.70;60.00
38464;DHT22;24243;51.956;5.902;2022-10-16T02:11:16;19.70;60.00
38464;DHT22;24243;51.956;5.902;2022-10-16T02:13:45;19.70;60.00
38464;DHT22;24243;51.956;5.902;2022-10-16T02:16:13;19.70;60.10
38464;DHT22;24243;51.956;5.902;2022-10-16T02:18:40;19.70;60.10
38464;DHT22;24243;51.956;5.902;2022-10-16T02:26:42;19.70;60.10
38464;DHT22;24243;51.956;5.902;2022-10-16T02:29:10;19.70;60.10
38464;DHT22;24243;51.956;5.902;2022-10-16T02:31:39;19.70;60.10
38464;DHT22;24243;51.956;5.902;2022-10-16T02:34:06;19.70;60.20
38464;DHT22;24243;51.956;5.902;2022-10-16T02:36:33;19.70;60.10
38464;DHT22;24243;51.956;5.902;2022-10-16T02:39:00;19.70;60.20
38464;DHT22;24243;51.956;5.902;2022-10-16T02:41:26;19.70;60.20
38464;DHT22;24243;51.956;5.902;2022-10-16T02:43:52;19.70;60.20
38464;DHT22;24243;51.956;5.902;2022-10-16T02:46:20;19.70;60.20
38464;DHT22;24243;51.956;5.902;2022-10-16T02:48:46;19.70;60.20
38464;DHT22;24243;51.956;5.902;2022-10-16T02:51:11;19.70;60.10
38464;DHT22;24243;51.956;5.902;2022-10-16T02:53:37;19.60;60.10
38464;DHT22;24243;51.956;5.902;2022-10-16T02:56:03;19.60;60.10
38464;DHT22;24243;51.956;5.902;2022-10-16T02:58:28;19.70;60.10
38464;DHT22;24243;51.956;5.902;2022-10-16T03:00:54;19.70;60.10
38464;DHT22;24243;51.956;5.902;2022-10-16T03:03:20;19.60;60.10
38464;DHT22;24243;51.956;5.902;2022-10-16T03:05:45;19.60;60.10
38464;DHT22;24243;51.956;5.902;2022-10-16T03:08:11;19.60;60.00
38464;DHT22;24243;51.956;5.902;2022-10-16T03:10:37;19.60;60.00
38464;DHT22;24243;51.956;5.902;2022-10-16T03:13:03;19.60;60.00
38464;DHT22;24243;51.956;5.902;2022-10-16T03:15:28;19.60;60.00
38464;DHT22;24243;51.956;5.902;2022-10-16T03:17:54;19.60;60.00
38464;DHT22;24243;51.956;5.902;2022-10-16T03:20:20;19.60;60.00
38464;DHT22;24243;51.956;5.902;2022-10-16T03:22:45;19.60;60.00
38464;DHT22;24243;51.956;5.902;2022-10-16T03:25:11;19.60;60.00
38464;DHT22;24243;51.956;5.902;2022-10-16T03:27:36;19.60;60.00
38464;DHT22;24243;51.956;5.902;2022-10-16T03:30:02;19.60;60.00
38464;DHT22;24243;51.956;5.902;2022-10-16T03:32:28;19.60;60.00
38464;DHT22;24243;51.956;5.902;2022-10-16T03:34:53;19.60;60.00
38464;DHT22;24243;51.956;5.902;2022-10-16T03:37:19;19.60;60.00
38464;DHT22;24243;51.956;5.902;2022-10-16T03:39:45;19.60;60.00
38464;DHT22;24243;51.956;5.902;2022-10-16T03:42:11;19.60;60.00
38464;DHT22;24243;51.956;5.902;2022-10-16T03:44:37;19.60;59.90
38464;DHT22;24243;51.956;5.902;2022-10-16T03:47:03;19.60;59.90
38464;DHT22;24243;51.956;5.902;2022-10-16T03:49:28;19.60;59.90
38464;DHT22;24243;51.956;5.902;2022-10-16T03:51:54;19.60;59.90
38464;DHT22;24243;51.956;5.902;2022-10-16T03:54:20;19.60;59.90
38464;DHT22;24243;51.956;5.902;2022-10-16T03:56:47;19.60;59.90
38464;DHT22;24243;51.956;5.902;2022-10-16T03:59:13;19.60;59.90
38464;DHT22;24243;51.956;5.902;2022-10-16T04:01:39;19.60;59.90
38464;DHT22;24243;51.956;5.902;2022-10-16T04:04:04;19.60;59.90
38464;DHT22;24243;51.956;5.902;2022-10-16T04:06:30;19.60;59.90
38464;DHT22;24243;51.956;5.902;2022-10-16T04:08:55;19.60;59.90
38464;DHT22;24243;51.956;5.902;2022-10-16T04:11:21;19.60;59.90
38464;DHT22;24243;51.956;5.902;2022-10-16T04:13:47;19.60;59.90
38464;DHT22;24243;51.956;5.902;2022-10-16T04:16:12;19.60;59.90
38464;DHT22;24243;51.956;5.902;2022-10-16T04:18:38;19.60;59.90
38464;DHT22;24243;51.956;5.902;2022-10-16T04:21:04;19.50;59.80
38464;DHT22;24243;51.956;5.902;2022-10-16T04:23:30;19.60;59.90
38464;DHT22;24243;51.956;5.902;2022-10-16T04:25:56;19.60;59.80
38464;DHT22;24243;51.956;5.902;2022-10-16T04:28:22;19.50;59.80
38464;DHT22;24243;51.956;5.902;2022-10-16T04:30:47;19.60;60.00
38464;DHT22;24243;51.956;5.902;2022-10-16T04:33:13;19.50;59.80
38464;DHT22;24243;51.956;5.902;2022-10-16T04:35:38;19.60;59.80
38464;DHT22;24243;51.956;5.902;2022-10-16T04:38:04;19.50;59.80
38464;DHT22;24243;51.956;5.902;2022-10-16T04:40:30;19.50;59.70
38464;DHT22;24243;51.956;5.902;2022-10-16T04:42:58;19.50;59.70
38464;DHT22;24243;51.956;5.902;2022-10-16T04:45:24;19.50;59.70
38464;DHT22;24243;51.956;5.902;2022-10-16T04:47:50;19.50;59.70
38464;DHT22;24243;51.956;5.902;2022-10-16T04:50:15;19.50;59.70
38464;DHT22;24243;51.956;5.902;2022-10-16T04:52:41;19.50;59.70
38464;DHT22;24243;51.956;5.902;2022-10-16T04:55:07;19.50;59.70
38464;DHT22;24243;51.956;5.902;2022-10-16T04:57:32;19.50;59.70
38464;DHT22;24243;51.956;5.902;2022-10-16T04:59:58;19.50;59.70
38464;DHT22;24243;51.956;5.902;2022-10-16T05:02:24;19.50;59.70
38464;DHT22;24243;51.956;5.902;2022-10-16T05:04:50;19.50;59.60
38464;DHT22;24243;51.956;5.902;2022-10-16T05:07:15;19.50;59.60
38464;DHT22;24243;51.956;5.902;2022-10-16T05:09:41;19.50;59.70
38464;DHT22;24243;51.956;5.902;2022-10-16T05:12:06;19.50;59.60
38464;DHT22;24243;51.956;5.902;2022-10-16T05:14:32;19.50;59.60
38464;DHT22;24243;51.956;5.902;2022-10-16T05:16:59;19.50;59.60
38464;DHT22;24243;51.956;5.902;2022-10-16T05:19:25;19.50;59.60
38464;DHT22;24243;51.956;5.902;2022-10-16T05:21:50;19.50;59.60
38464;DHT22;24243;51.956;5.902;2022-10-16T05:24:16;19.50;59.60
38464;DHT22;24243;51.956;5.902;2022-10-16T05:26:41;19.50;59.60
38464;DHT22;24243;51.956;5.902;2022-10-16T05:29:07;19.50;59.50
38464;DHT22;24243;51.956;5.902;2022-10-16T05:31:32;19.50;59.50
38464;DHT22;24243;51.956;5.902;2022-10-16T05:33:58;19.50;59.50
38464;DHT22;24243;51.956;5.902;2022-10-16T05:36:25;19.50;59.50
38464;DHT22;24243;51.956;5.902;2022-10-16T05:38:51;19.50;59.50
38464;DHT22;24243;51.956;5.902;2022-10-16T05:41:16;19.50;59.50
38464;DHT22;24243;51.956;5.902;2022-10-16T05:43:47;19.50;59.50
38464;DHT22;24243;51.956;5.902;2022-10-16T05:46:12;19.50;59.50
38464;DHT22;24243;51.956;5.902;2022-10-16T05:48:38;19.50;59.50
38464;DHT22;24243;51.956;5.902;2022-10-16T05:51:05;19.50;59.50
38464;DHT22;24243;51.956;5.902;2022-10-16T05:53:32;19.50;59.50
38464;DHT22;24243;51.956;5.902;2022-10-16T05:55:58;19.50;59.50
38464;DHT22;24243;51.956;5.902;2022-10-16T05:58:24;19.50;59.50
38464;DHT22;24243;51.956;5.902;2022-10-16T06:00:53;19.50;59.50
38464;DHT22;24243;51.956;5.902;2022-10-16T06:03:19;19.50;59.50
38464;DHT22;24243;51.956;5.902;2022-10-16T06:05:45;19.50;59.50
38464;DHT22;24243;51.956;5.902;2022-10-16T06:08:10;19.50;59.50
38464;DHT22;24243;51.956;5.902;2022-10-16T06:10:36;19.50;59.50
38464;DHT22;24243;51.956;5.902;2022-10-16T06:13:01;19.50;59.50
38464;DHT22;24243;51.956;5.902;2022-10-16T06:15:27;19.50;59.50
38464;DHT22;24243;51.956;5.902;2022-10-16T06:17:52;19.50;59.50
38464;DHT22;24243;51.956;5.902;2022-10-16T06:20:18;19.50;59.50
38464;DHT22;24243;51.956;5.902;2022-10-16T06:22:44;19.50;59.40
38464;DHT22;24243;51.956;5.902;2022-10-16T06:25:09;19.50;59.50
38464;DHT22;24243;51.956;5.902;2022-10-16T06:27:35;19.50;59.40
38464;DHT22;24243;51.956;5.902;2022-10-16T06:30:01;19.50;59.40
38464;DHT22;24243;51.956;5.902;2022-10-16T06:32:27;19.50;59.40
38464;DHT22;24243;51.956;5.902;2022-10-16T06:34:52;19.50;59.40
38464;DHT22;24243;51.956;5.902;2022-10-16T06:37:18;19.50;59.30
38464;DHT22;24243;51.956;5.902;2022-10-16T06:39:43;19.50;59.30
38464;DHT22;24243;51.956;5.902;2022-10-16T06:42:09;19.50;59.30
38464;DHT22;24243;51.956;5.902;2022-10-16T06:44:34;19.50;59.30
38464;DHT22;24243;51.956;5.902;2022-10-16T06:47:00;19.50;59.30
38464;DHT22;24243;51.956;5.902;2022-10-16T06:49:26;19.50;59.30
38464;DHT22;24243;51.956;5.902;2022-10-16T06:51:53;19.50;59.30
38464;DHT22;24243;51.956;5.902;2022-10-16T06:54:19;19.50;59.30
38464;DHT22;24243;51.956;5.902;2022-10-16T06:56:44;19.50;59.30
38464;DHT22;24243;51.956;5.902;2022-10-16T06:59:10;19.50;59.20
38464;DHT22;24243;51.956;5.902;2022-10-16T07:01:36;19.50;59.20
38464;DHT22;24243;51.956;5.902;2022-10-16T07:04:01;19.50;59.20
38464;DHT22;24243;51.956;5.902;2022-10-16T07:06:30;19.50;59.20
38464;DHT22;24243;51.956;5.902;2022-10-16T07:08:56;19.50;59.20
38464;DHT22;24243;51.956;5.902;2022-10-16T07:11:22;19.50;59.20
38464;DHT22;24243;51.956;5.902;2022-10-16T07:13:48;19.50;59.20
38464;DHT22;24243;51.956;5.902;2022-10-16T07:16:15;19.50;59.20
38464;DHT22;24243;51.956;5.902;2022-10-16T07:18:41;19.50;59.20
38464;DHT22;24243;51.956;5.902;2022-10-16T07:21:09;19.50;59.20
38464;DHT22;24243;51.956;5.902;2022-10-16T07:23:35;19.50;59.20
38464;DHT22;24243;51.956;5.902;2022-10-16T07:26:01;19.50;59.20
38464;DHT22;24243;51.956;5.902;2022-10-16T07:28:27;19.50;59.20
38464;DHT22;24243;51.956;5.902;2022-10-16T07:30:53;19.50;59.10
38464;DHT22;24243;51.956;5.902;2022-10-16T07:33:18;19.50;59.10
38464;DHT22;24243;51.956;5.902;2022-10-16T07:35:48;19.60;59.20
38464;DHT22;24243;51.956;5.902;2022-10-16T07:38:13;19.60;59.10
38464;DHT22;24243;51.956;5.902;2022-10-16T07:40:39;19.60;59.10
38464;DHT22;24243;51.956;5.902;2022-10-16T07:43:05;19.60;59.10
38464;DHT22;24243;51.956;5.902;2022-10-16T07:45:30;19.70;59.00
38464;DHT22;24243;51.956;5.902;2022-10-16T07:47:56;19.70;59.00
38464;DHT22;24243;51.956;5.902;2022-10-16T07:50:21;19.70;58.90
38464;DHT22;24243;51.956;5.902;2022-10-16T07:52:47;19.80;58.90
38464;DHT22;24243;51.956;5.902;2022-10-16T07:55:12;19.80;58.80
38464;DHT22;24243;51.956;5.902;2022-10-16T07:57:38;19.90;59.40
38464;DHT22;24243;51.956;5.902;2022-10-16T08:00:04;19.90;58.70
38464;DHT22;24243;51.956;5.902;2022-10-16T08:02:30;20.00;58.70
38464;DHT22;24243;51.956;5.902;2022-10-16T08:04:56;20.00;58.70
38464;DHT22;24243;51.956;5.902;2022-10-16T08:07:22;20.00;58.60
38464;DHT22;24243;51.956;5.902;2022-10-16T08:09:50;20.00;58.60
38464;DHT22;24243;51.956;5.902;2022-10-16T08:12:17;20.10;58.60
38464;DHT22;24243;51.956;5.902;2022-10-16T08:14:42;20.10;58.50
38464;DHT22;24243;51.956;5.902;2022-10-16T08:17:08;20.20;58.50
38464;DHT22;24243;51.956;5.902;2022-10-16T08:19:33;20.20;58.40
38464;DHT22;24243;51.956;5.902;2022-10-16T08:22:00;20.30;58.40
38464;DHT22;24243;51.956;5.902;2022-10-16T08:24:26;20.30;58.40
38464;DHT22;24243;51.956;5.902;2022-10-16T08:26:53;20.30;58.40
38464;DHT22;24243;51.956;5.902;2022-10-16T08:29:18;20.40;58.40
38464;DHT22;24243;51.956;5.902;2022-10-16T08:31:44;20.30;58.30
38464;DHT22;24243;51.956;5.902;2022-10-16T08:34:10;20.40;58.30
38464;DHT22;24243;51.956;5.902;2022-10-16T08:36:35;20.40;58.30
38464;DHT22;24243;51.956;5.902;2022-10-16T08:39:01;20.40;58.30
38464;DHT22;24243;51.956;5.902;2022-10-16T08:41:30;20.50;58.30
38464;DHT22;24243;51.956;5.902;2022-10-16T08:49:15;20.50;58.30
38464;DHT22;24243;51.956;5.902;2022-10-16T08:51:41;20.50;58.30
38464;DHT22;24243;51.956;5.902;2022-10-16T08:56:45;20.60;58.30
38464;DHT22;24243;51.956;5.902;2022-10-16T08:59:10;20.60;58.30
38464;DHT22;24243;51.956;5.902;2022-10-16T09:01:38;20.60;58.30
38464;DHT22;24243;51.956;5.902;2022-10-16T09:11:34;20.70;58.20
38464;DHT22;24243;51.956;5.902;2022-10-16T09:16:44;20.80;58.10
38464;DHT22;24243;51.956;5.902;2022-10-16T09:19:20;20.80;58.00
38464;DHT22;24243;51.956;5.902;2022-10-16T09:21:48;20.90;58.00
38464;DHT22;24243;51.956;5.902;2022-10-16T09:24:15;20.90;58.00
38464;DHT22;24243;51.956;5.902;2022-10-16T09:26:41;20.90;57.90
38464;DHT22;24243;51.956;5.902;2022-10-16T09:29:08;21.00;57.90
38464;DHT22;24243;51.956;5.902;2022-10-16T09:31:35;21.00;57.80
38464;DHT22;24243;51.956;5.902;2022-10-16T09:34:02;21.00;57.80
38464;DHT22;24243;51.956;5.902;2022-10-16T09:36:35;21.10;57.80
38464;DHT22;24243;51.956;5.902;2022-10-16T09:39:08;21.10;57.80
38464;DHT22;24243;51.956;5.902;2022-10-16T09:41:37;21.20;57.70
38464;DHT22;24243;51.956;5.902;2022-10-16T09:44:03;21.20;57.70
38464;DHT22;24243;51.956;5.902;2022-10-16T09:46:33;21.20;57.60
38464;DHT22;24243;51.956;5.902;2022-10-16T09:49:03;21.30;57.60
38464;DHT22;24243;51.956;5.902;2022-10-16T09:51:30;21.30;57.60
38464;DHT22;24243;51.956;5.902;2022-10-16T09:54:00;21.30;57.60
38464;DHT22;24243;51.956;5.902;2022-10-16T09:56:27;21.30;57.60
38464;DHT22;24243;51.956;5.902;2022-10-16T09:58:54;21.30;57.60
38464;DHT22;24243;51.956;5.902;2022-10-16T10:01:20;21.40;57.50
38464;DHT22;24243;51.956;5.902;2022-10-16T10:03:46;21.40;57.50
38464;DHT22;24243;51.956;5.902;2022-10-16T10:06:17;21.50;57.50
38464;DHT22;24243;51.956;5.902;2022-10-16T10:08:56;21.50;57.40
38464;DHT22;24243;51.956;5.902;2022-10-16T10:16:51;21.60;57.30
38464;DHT22;24243;51.956;5.902;2022-10-16T10:19:21;21.60;57.30
38464;DHT22;24243;51.956;5.902;2022-10-16T10:21:47;21.70;57.20
38464;DHT22;24243;51.956;5.902;2022-10-16T10:24:16;21.70;57.20
38464;DHT22;24243;51.956;5.902;2022-10-16T10:29:20;21.80;57.20
38464;DHT22;24243;51.956;5.902;2022-10-16T10:36:55;21.90;57.10
38464;DHT22;24243;51.956;5.902;2022-10-16T10:39:30;21.90;57.00
38464;DHT22;24243;51.956;5.902;2022-10-16T10:44:38;22.00;57.00
38464;DHT22;24243;51.956;5.902;2022-10-16T10:54:49;22.10;56.80
38464;DHT22;24243;51.956;5.902;2022-10-16T11:07:49;22.30;56.70
38464;DHT22;24243;51.956;5.902;2022-10-16T11:10:13;22.20;56.60
38464;DHT22;24243;51.956;5.902;2022-10-16T11:12:40;22.30;56.70
38464;DHT22;24243;51.956;5.902;2022-10-16T11:17:39;22.30;56.60
38464;DHT22;24243;51.956;5.902;2022-10-16T11:20:20;22.30;56.50
38464;DHT22;24243;51.956;5.902;2022-10-16T11:22:48;22.30;56.50
38464;DHT22;24243;51.956;5.902;2022-10-16T11:25:22;22.40;56.50
38464;DHT22;24243;51.956;5.902;2022-10-16T11:30:25;22.40;56.40
38464;DHT22;24243;51.956;5.902;2022-10-16T11:35:47;22.40;56.40
38464;DHT22;24243;51.956;5.902;2022-10-16T11:38:37;22.40;56.40
38464;DHT22;24243;51.956;5.902;2022-10-16T11:41:01;22.40;56.40
38464;DHT22;24243;51.956;5.902;2022-10-16T11:43:32;22.50;56.40
38464;DHT22;24243;51.956;5.902;2022-10-16T11:46:17;22.40;56.40
38464;DHT22;24243;51.956;5.902;2022-10-16T11:48:46;22.50;56.40
38464;DHT22;24243;51.956;5.902;2022-10-16T11:51:15;22.50;56.40
38464;DHT22;24243;51.956;5.902;2022-10-16T11:53:44;22.50;56.30
38464;DHT22;24243;51.956;5.902;2022-10-16T11:56:14;22.50;56.30
38464;DHT22;24243;51.956;5.902;2022-10-16T11:58:50;22.50;56.30
38464;DHT22;24243;51.956;5.902;2022-10-16T12:03:48;22.50;56.20
38464;DHT22;24243;51.956;5.902;2022-10-16T12:09:04;22.50;56.20
38464;DHT22;24243;51.956;5.902;2022-10-16T12:11:34;22.50;56.20
38464;DHT22;24243;51.956;5.902;2022-10-16T12:14:04;22.50;56.20
38464;DHT22;24243;51.956;5.902;2022-10-16T12:16:30;22.50;56.20
38464;DHT22;24243;51.956;5.902;2022-10-16T12:19:13;22.60;56.20
38464;DHT22;24243;51.956;5.902;2022-10-16T12:21:39;22.50;56.20
38464;DHT22;24243;51.956;5.902;2022-10-16T12:24:04;22.60;56.20
38464;DHT22;24243;51.956;5.902;2022-10-16T12:26:36;22.50;56.10
38464;DHT22;24243;51.956;5.902;2022-10-16T12:29:13;22.50;56.10
38464;DHT22;24243;51.956;5.902;2022-10-16T12:31:43;22.60;56.10
38464;DHT22;24243;51.956;5.902;2022-10-16T12:34:23;22.60;56.10
38464;DHT22;24243;51.956;5.902;2022-10-16T12:36:49;22.50;56.10
38464;DHT22;24243;51.956;5.902;2022-10-16T12:39:22;22.50;56.00
38464;DHT22;24243;51.956;5.902;2022-10-16T12:41:48;22.50;56.10
38464;DHT22;24243;51.956;5.902;2022-10-16T12:44:25;22.50;56.00
38464;DHT22;24243;51.956;5.902;2022-10-16T12:46:53;22.50;56.00
38464;DHT22;24243;51.956;5.902;2022-10-16T12:51:46;22.50;56.10
38464;DHT22;24243;51.956;5.902;2022-10-16T12:54:23;22.50;56.00
38464;DHT22;24243;51.956;5.902;2022-10-16T12:59:42;22.50;56.00
38464;DHT22;24243;51.956;5.902;2022-10-16T13:02:16;22.50;56.00
38464;DHT22;24243;51.956;5.902;2022-10-16T13:10:11;22.40;55.90
38464;DHT22;24243;51.956;5.902;2022-10-16T13:15:19;22.40;56.00
38464;DHT22;24243;51.956;5.902;2022-10-16T13:20:49;22.40;56.00
38464;DHT22;24243;51.956;5.902;2022-10-16T13:23:19;22.40;56.00
38464;DHT22;24243;51.956;5.902;2022-10-16T13:26:01;22.40;56.00
38464;DHT22;24243;51.956;5.902;2022-10-16T13:28:32;22.40;56.00
38464;DHT22;24243;51.956;5.902;2022-10-16T13:30:59;22.30;56.00
38464;DHT22;24243;51.956;5.902;2022-10-16T13:33:38;22.30;56.00
38464;DHT22;24243;51.956;5.902;2022-10-16T13:36:05;22.30;56.00
38464;DHT22;24243;51.956;5.902;2022-10-16T13:38:31;22.30;56.00
38464;DHT22;24243;51.956;5.902;2022-10-16T13:40:59;22.30;56.00
38464;DHT22;24243;51.956;5.902;2022-10-16T13:43:36;22.30;56.00
38464;DHT22;24243;51.956;5.902;2022-10-16T13:46:03;22.30;56.10
38464;DHT22;24243;51.956;5.902;2022-10-16T13:48:30;22.20;56.00
38464;DHT22;24243;51.956;5.902;2022-10-16T13:51:03;22.30;56.00
38464;DHT22;24243;51.956;5.902;2022-10-16T13:53:32;22.20;56.00
38464;DHT22;24243;51.956;5.902;2022-10-16T13:55:58;22.20;56.00
38464;DHT22;24243;51.956;5.902;2022-10-16T13:58:25;22.20;56.10
38464;DHT22;24243;51.956;5.902;2022-10-16T14:03:40;22.20;56.10
38464;DHT22;24243;51.956;5.902;2022-10-16T14:06:06;22.10;56.00
38464;DHT22;24243;51.956;5.902;2022-10-16T14:08:37;22.10;56.00
38464;DHT22;24243;51.956;5.902;2022-10-16T14:11:07;22.10;56.10
38464;DHT22;24243;51.956;5.902;2022-10-16T14:13:37;22.10;56.10
38464;DHT22;24243;51.956;5.902;2022-10-16T14:16:07;22.10;56.10
38464;DHT22;24243;51.956;5.902;2022-10-16T14:18:34;22.00;56.10
38464;DHT22;24243;51.956;5.902;2022-10-16T14:21:06;22.00;56.10
38464;DHT22;24243;51.956;5.902;2022-10-16T14:23:36;22.00;56.10
38464;DHT22;24243;51.956;5.902;2022-10-16T14:28:35;21.90;56.10
38464;DHT22;24243;51.956;5.902;2022-10-16T14:31:01;22.00;56.70
38464;DHT22;24243;51.956;5.902;2022-10-16T14:36:05;21.90;56.10
38464;DHT22;24243;51.956;5.902;2022-10-16T14:38:32;21.90;56.10
38464;DHT22;24243;51.956;5.902;2022-10-16T14:40:58;21.90;56.10
38464;DHT22;24243;51.956;5.902;2022-10-16T14:43:34;21.90;56.10
38464;DHT22;24243;51.956;5.902;2022-10-16T14:46:01;21.80;56.10
38464;DHT22;24243;51.956;5.902;2022-10-16T14:48:27;21.80;56.00
38464;DHT22;24243;51.956;5.902;2022-10-16T14:50:53;21.80;56.00
38464;DHT22;24243;51.956;5.902;2022-10-16T14:53:18;21.80;56.00
38464;DHT22;24243;51.956;5.902;2022-10-16T14:55:44;21.80;56.10
38464;DHT22;24243;51.956;5.902;2022-10-16T14:58:20;21.80;56.10
38464;DHT22;24243;51.956;5.902;2022-10-16T15:00:46;21.80;56.10
38464;DHT22;24243;51.956;5.902;2022-10-16T15:03:12;21.70;56.10
38464;DHT22;24243;51.956;5.902;2022-10-16T15:05:37;21.80;56.10
38464;DHT22;24243;51.956;5.902;2022-10-16T15:08:03;21.70;56.10
38464;DHT22;24243;51.956;5.902;2022-10-16T15:10:29;21.70;56.10
38464;DHT22;24243;51.956;5.902;2022-10-16T15:12:55;21.70;56.10
38464;DHT22;24243;51.956;5.902;2022-10-16T15:15:24;21.70;56.10
38464;DHT22;24243;51.956;5.902;2022-10-16T15:17:51;21.70;56.10
38464;DHT22;24243;51.956;5.902;2022-10-16T15:20:25;21.70;56.10
38464;DHT22;24243;51.956;5.902;2022-10-16T15:22:51;21.60;56.00
38464;DHT22;24243;51.956;5.902;2022-10-16T15:25:26;21.60;56.10
38464;DHT22;24243;51.956;5.902;2022-10-16T15:27:52;21.60;56.10
38464;DHT22;24243;51.956;5.902;2022-10-16T15:30:18;21.70;56.10
38464;DHT22;24243;51.956;5.902;2022-10-16T15:32:43;21.60;56.10
38464;DHT22;24243;51.956;5.902;2022-10-16T15:35:09;21.60;56.10
38464;DHT22;24243;51.956;5.902;2022-10-16T15:37:35;21.60;56.10
38464;DHT22;24243;51.956;5.902;2022-10-16T15:40:00;21.60;56.10
38464;DHT22;24243;51.956;5.902;2022-10-16T15:42:26;21.60;56.10
38464;DHT22;24243;51.956;5.902;2022-10-16T15:44:51;21.60;56.10
38464;DHT22;24243;51.956;5.902;2022-10-16T15:47:17;21.50;56.10
38464;DHT22;24243;51.956;5.902;2022-10-16T15:49:42;21.50;56.10
38464;DHT22;24243;51.956;5.902;2022-10-16T15:52:08;21.50;56.10
38464;DHT22;24243;51.956;5.902;2022-10-16T15:54:34;21.50;56.10
38464;DHT22;24243;51.956;5.902;2022-10-16T15:56:59;21.50;56.80
38464;DHT22;24243;51.956;5.902;2022-10-16T15:59:25;21.50;56.10
38464;DHT22;24243;51.956;5.902;2022-10-16T16:01:50;21.50;56.10
38464;DHT22;24243;51.956;5.902;2022-10-16T16:04:16;21.50;56.20
38464;DHT22;24243;51.956;5.902;2022-10-16T16:06:42;21.40;56.10
38464;DHT22;24243;51.956;5.902;2022-10-16T16:09:13;21.40;56.20
38464;DHT22;24243;51.956;5.902;2022-10-16T16:11:39;21.40;56.80
38464;DHT22;24243;51.956;5.902;2022-10-16T16:14:09;21.40;56.20
38464;DHT22;24243;51.956;5.902;2022-10-16T16:16:36;21.40;56.20
38464;DHT22;24243;51.956;5.902;2022-10-16T16:19:03;21.30;56.20
38464;DHT22;24243;51.956;5.902;2022-10-16T16:21:30;21.30;56.30
38464;DHT22;24243;51.956;5.902;2022-10-16T16:23:55;21.30;56.20
38464;DHT22;24243;51.956;5.902;2022-10-16T16:26:28;21.30;56.30
38464;DHT22;24243;51.956;5.902;2022-10-16T16:28:57;21.30;56.30
38464;DHT22;24243;51.956;5.902;2022-10-16T16:31:24;21.30;56.30
38464;DHT22;24243;51.956;5.902;2022-10-16T16:33:50;21.20;56.30
38464;DHT22;24243;51.956;5.902;2022-10-16T16:36:16;21.20;56.30
38464;DHT22;24243;51.956;5.902;2022-10-16T16:38:43;21.20;56.40
38464;DHT22;24243;51.956;5.902;2022-10-16T16:41:13;21.10;56.30
38464;DHT22;24243;51.956;5.902;2022-10-16T16:43:38;21.10;56.40
38464;DHT22;24243;51.956;5.902;2022-10-16T16:46:04;21.10;56.40
38464;DHT22;24243;51.956;5.902;2022-10-16T16:48:31;21.10;57.00
38464;DHT22;24243;51.956;5.902;2022-10-16T16:50:56;21.10;56.40
38464;DHT22;24243;51.956;5.902;2022-10-16T16:53:22;21.10;56.50
38464;DHT22;24243;51.956;5.902;2022-10-16T16:55:47;21.00;56.40
38464;DHT22;24243;51.956;5.902;2022-10-16T16:58:13;21.10;56.50
38464;DHT22;24243;51.956;5.902;2022-10-16T17:00:45;21.00;56.40
38464;DHT22;24243;51.956;5.902;2022-10-16T17:03:11;21.00;56.40
38464;DHT22;24243;51.956;5.902;2022-10-16T17:05:36;21.00;56.30